Airfield :
LOGIN :

Register | Disclaimer

   EN    FR    IT 

 










Legend :    VFR   Marginal VFR   IFR   Intensive IFR   Very Intensive IFR
Visi :
Ceiling :
>= 8 km
>= 3000ft
5 to 8 km
1000 to 3000 ft
1500m to 5 km
500 to 1000 ft
800 to 1500m
200 to 500 ft
< 800m
< 200 ft
Symbols :   Thunderstorms  Fog  Heavy snow  Heavy precipitations  Wind > 20 kt
SIGMETs :     Misc.  Thunderstorms  Icing  Turbulence  Mountain Waves  Volcanic Ashes






- Airport Elevation : 465 ft
- IATA code : LEJ


EDDP - Leipzig Halle

CURRENT METAR :
  • 280750Z 30019KT 9999 SCT040 12/05 Q1016 TEMPO 29020G30KT

EXPIRED METARs :
  • 280720Z 29015KT 9999 SCT035 11/05 Q1016 TEMPO 29020G30KT
  • 280650Z 29015KT 9999 SCT035 11/06 Q1016 TEMPO 29020G30KT
  • 280620Z 28017KT 9999 SCT030 11/07 Q1016 TEMPO 28020G30KT
  • 280550Z 29015KT 9999 SCT030 10/07 Q1016 TEMPO 28015G25KT

TAF TAF EDDP
Valid from the 28 at 06:00 until the 29 at 06:00 UTC


280500Z 2806/2906 29014KT 9999 SCT040
BECMG 2806/2808 29015G30KT
PROB30
TEMPO 2809/2814 29020G35KT SHRA BKN030CB
BECMG 2817/2821 29006KT



MET'MAP, your aeronautical weather chart ! - Copyright ORBIFLY December 2007 - Disclaimer

ORBIFLY MET'MAP TEAM :

Programming & Development : Alexandra Zaïnal
Original concept : Baudouin d'Aumeries
Technical & hardware support : Manuel Goepfert
Assistance : Marc-Olivier Méhu

Contact : metmap@orbifly.com




SOURCES & CREDITS :

   NOAA